• Join FlightAware (Why Join?)
  • Login
  • US Flag 
05:18AM EST


 

Airport Tracker/Info


-or-


 

Live Flight TrackerFlight Track Log ✈ N105WC ✈ 12-Sep-2013 ✈ KMTN - CYRP

Flight Track Log - Related Links

Times and Time Zones

All times are in EDT time to prevent confusion due to time zone crossing. See the N105WC flight status page for this flight to view local times or setup timezone preferences in your user account.

Time Position Orientation Groundspeed Altitude Reporting Facility
EDT Latitude Longitude Course Direction KTS MPH feet Rate Location/Type
08:42PM 39.3333 -76.4333 303° West 154 177 800  Level Potomac TRACON
08:43PM 39.3667 -76.5000 303° West 242 278 3,400 3,240 Climbing Potomac TRACON
08:44PM 39.3500 -76.5833 256° West 245 282 7,300 3,540 Climbing Potomac TRACON
08:45PM 39.3333 -76.6667 256° West 264 304 10,500 3,000 Climbing Potomac TRACON
08:46PM 39.3167 -76.7667 268° West 275 316 13,400 2,700 Climbing Potomac TRACON
08:47PM 39.3167 -76.8667 270° West 288 331 15,900 1,320 Climbing Potomac TRACON
08:49PM 39.4019 -77.1117 294° West 355 409 17,600 1,500 Climbing Washington Center
08:51PM 39.4714 -77.2100 312° West 361 415 20,800 2,880 Climbing Washington Center
08:52PM 39.5308 -77.2975 311° West 354 407 23,500 1,860 Climbing Washington Center
08:54PM 39.6906 -77.4567 323° Northwest 348 400 26,800 1,440 Climbing New York Center
08:55PM 39.7969 -77.4561 360° North 341 392 28,200 1,200 Climbing New York Center
08:56PM 39.9075 -77.4531 North 367 422 29,200 960 Climbing New York Center
08:57PM 40.0244 -77.4506 North 394 453 30,200 960 Climbing New York Center
08:58PM 40.1539 -77.4467 North 407 468 31,200 900 Climbing New York Center
08:59PM 40.2711 -77.4036 16° North 431 496 32,100 900 Climbing New York Center
09:00PM 40.3950 -77.3500 18° North 442 509 33,000 660 Climbing New York Center
09:01PM 40.5206 -77.3047 15° North 452 520 33,500 420 Climbing New York Center
09:02PM 40.6508 -77.2458 19° North 464 534 33,900 420 Climbing New York Center
09:03PM 40.7828 -77.1953 16° North 481 554 34,400 480 Climbing New York Center
09:04PM 40.9150 -77.1392 18° North 492 566 34,900 300 Climbing New York Center
09:05PM 41.0514 -77.0831 17° North 497 572 35,000  Climbing New York Center
09:06PM 41.1900 -77.0242 18° North 508 585 35,000  Level New York Center
09:07PM 41.3286 -76.9653 18° North 508 585 35,000  Level New York Center
09:08PM 41.4692 -76.9061 18° North 514 592 35,000  Level New York Center
09:09PM 41.5947 -76.8511 18° North 519 597 35,000  Level New York Center
09:10PM 41.7375 -76.7919 17° North 519 597 35,000  Level New York Center
09:11PM 41.8758 -76.7319 18° North 524 603 35,000  Level New York Center
09:13PM 42.1686 -76.6075 17° North 552 635 35,000  Level Cleveland Center
09:14PM 42.3900 -76.5083 18° North 528 608 35,000  Level Boston Center
09:15PM 42.5319 -76.4472 18° North 528 608 35,000  Level Boston Center
09:16PM 42.6797 -76.3944 15° North 533 613 35,000  Level Boston Center
09:17PM 42.8381 -76.3339 16° North 533 613 35,000  Level Boston Center
09:18PM 42.9839 -76.2778 16° North 538 619 35,000  Level Boston Center
09:19PM 43.1275 -76.2242 15° North 538 619 35,000 -420 Level Boston Center
09:20PM 43.2769 -76.1819 12° North 538 619 34,200 -1,560 Descending Boston Center
09:21PM 43.4256 -76.1656 North 528 608 32,000 -1,980 Descending Boston Center
09:22PM 43.5578 -76.1392 North 528 608 30,300 -1,620 Descending Boston Center
09:23PM 43.7044 -76.1108 North 528 608 28,800 -1,260 Descending Boston Center
09:24PM 43.8450 -76.0878 North 517 595 27,800 -1,320 Descending Boston Center
09:25PM 43.9739 -76.0322 17° North 504 580 26,200 -960 Descending Boston Center
09:26PM 44.1053 -75.9619 21° North 491 565 26,000 -120 Descending Boston Center
09:27PM 44.2425 -75.9731 357° North 483 556 26,000 -720 Level Boston Center
09:28PM 44.3736 -75.9781 358° North 483 556 24,600 -2,280 Descending Boston Center
09:29PM 44.5050 -75.9769 360° North 477 549 21,500 -3,060 Descending Boston Center
09:31PM 44.6667 -76.0000 354° North 410 472 17,300 -2,700 Descending Montreal Center
09:32PM 44.7667 -76.0000 360° North 370 426 15,100 -2,280 Descending Montreal Center
09:33PM 44.8667 -76.0000 360° North 340 391 12,800 -2,940 Descending Montreal Center
09:35PM 45.0333 -76.0167 356° North 280 322 6,400 -2,700 Descending Montreal Center
09:36PM 45.1000 -76.0167 360° North 270 311 4,800 -1,500 Descending Montreal Center
09:37PM 45.1667 -76.0333 350° North 230 265 3,500 -1,200 Descending Montreal Center
09:38PM 45.2167 -76.0833 325° Northwest 190 219 2,500 -840 Descending Montreal Center
09:39PM 45.2500 -76.1167 325° Northwest 150 173 1,900 -540 Descending Montreal Center
09:40PM 45.2833 -76.1167 360° North 130 150 1,500 -600 Descending Montreal Center
09:41PM 45.3000 -76.0333 74° East 160 184 700 -240 Descending Montreal Center
09:42PM 45.3000 -76.0000 90° East 150 173 1,100 240 Climbing Montreal Center
09:43PM 45.3000 -75.9500 90° East 130 150 1,200 -180 Climbing Montreal Center
09:44PM 45.3000 -76.0000 270° West 110 127 800 -360 Descending Montreal Center
09:45PM 45.3000 -76.0167 270° West 100 115 500 -300 Descending Montreal Center